Podhale (bahama Islands) — C6TX9 — position and weather

sailwx.info

Track history (hours):
 
Tides and Currents Weather Stations Pressure Air Temp Water Temp Dewpoint Dewpoint Depression Visibility Wind Speed Wind Dir Waves Ship Positions

Podhale (bahama Islands)

Last reported at 2014-Sep-12 09:13 UTC. Time now 2014-Sep-16 02:58 UTC.
Position N 50°29' W 000°07'.

Length 190 m; beam 24 m.

Type: Cargo ship. MMSI: 311831000.

Date/timePositionNaut miles runAvg speedWind from/ knotsBaromVisibWave heightAir tempDewpointWater temp
2014-Sep-12 09:13N 50°29' W 000°07'710.3
2014-Sep-12 08:33N 50°31' E 000°03'1211.7
2014-Sep-12 07:33N 50°35' E 000°21'1312.6
2014-Sep-12 06:33N 50°39' E 000°39'1312.6
2014-Sep-12 05:33N 50°47' E 000°55'1511.4
2014-Sep-12 04:12N 50°57' E 001°13'6 9.7
2014-Sep-12 03:33N 51°01' E 001°21'8 8.3
2014-Sep-12 02:33N 51°06' E 001°32'8 7.6
2014-Sep-12 01:33N 51°11' E 001°41'9 9.1
2014-Sep-12 00:34N 51°18' E 001°50'1211.5
2014-Sep-11 23:33N 51°28' E 001°60'1313.3
2014-Sep-11 22:33N 51°38' E 002°14'1813.5
2014-Sep-11 21:14N 51°52' E 002°32'912.3
2014-Sep-11 20:32N 52°01' E 002°35'  
2014-Sep-07 14:31N 69°49' E 014°53'1111.1
2014-Sep-07 13:31N 69°57' E 015°17'1111.1
2014-Sep-07 12:31N 70°04' E 015°41'  
Track history (hours):
 
Tides and Currents Weather Stations Pressure Air Temp Water Temp Dewpoint Dewpoint Depression Visibility Wind Speed Wind Dir Waves Ship Positions

Podhale (bahama Islands)

Last reported at 2014-Sep-12 09:13 UTC. Time now 2014-Sep-16 02:58 UTC.
Position N 50°29' W 000°07'.

Length 190 m; beam 24 m.

Type: Cargo ship. MMSI: 311831000.

Date/timePositionNaut miles runAvg speedWind from/ knotsBaromVisibWave heightAir tempDewpointWater temp
2014-Sep-12 09:13N 50°29' W 000°07'710.3
2014-Sep-12 08:33N 50°31' E 000°03'1211.7
2014-Sep-12 07:33N 50°35' E 000°21'1312.6
2014-Sep-12 06:33N 50°39' E 000°39'1312.6
2014-Sep-12 05:33N 50°47' E 000°55'1511.4
2014-Sep-12 04:12N 50°57' E 001°13'6 9.7
2014-Sep-12 03:33N 51°01' E 001°21'8 8.3
2014-Sep-12 02:33N 51°06' E 001°32'8 7.6
2014-Sep-12 01:33N 51°11' E 001°41'9 9.1
2014-Sep-12 00:34N 51°18' E 001°50'1211.5
2014-Sep-11 23:33N 51°28' E 001°60'1313.3
2014-Sep-11 22:33N 51°38' E 002°14'1813.5
2014-Sep-11 21:14N 51°52' E 002°32'912.3
2014-Sep-11 20:32N 52°01' E 002°35'  
2014-Sep-07 14:31N 69°49' E 014°53'1111.1
2014-Sep-07 13:31N 69°57' E 015°17'1111.1
2014-Sep-07 12:31N 70°04' E 015°41'  

Dump ship's entire track history